createdAt,value
2022-09-09T00:00:56.266Z,70.61
2022-09-09T00:03:25.179Z,70.25
2022-09-09T00:06:01.439Z,70.07
2022-09-09T00:08:40.330Z,69.82
2022-09-09T00:11:07.697Z,70.00
2022-09-09T00:13:37.624Z,69.92
2022-09-09T00:16:06.273Z,70.20
2022-09-09T00:18:39.002Z,70.86
2022-09-09T00:21:09.429Z,70.61
2022-09-09T00:23:38.789Z,71.09
2022-09-09T00:26:10.732Z,70.73
2022-09-09T00:28:41.796Z,70.46
2022-09-09T00:31:15.035Z,71.09
2022-09-09T00:33:41.381Z,71.09
2022-09-09T00:36:11.770Z,71.21
2022-09-09T00:38:40.317Z,71.46
2022-09-09T00:41:12.911Z,71.28
2022-09-09T00:43:39.151Z,72.46
2022-09-09T00:46:29.545Z,72.03
2022-09-09T00:49:02.149Z,72.20
2022-09-09T00:51:36.683Z,72.65
2022-09-09T00:54:19.442Z,72.66
2022-09-09T00:56:53.932Z,73.50
2022-09-09T00:59:30.385Z,73.09
2022-09-09T01:01:56.799Z,73.31
2022-09-09T01:04:32.213Z,73.72
2022-09-09T01:07:06.147Z,73.16
2022-09-09T01:09:40.686Z,73.56
2022-09-09T01:12:12.406Z,72.97
2022-09-09T01:14:45.327Z,73.45
2022-09-09T01:17:18.354Z,74.41
2022-09-09T01:20:01.627Z,74.75
2022-09-09T01:22:37.482Z,74.29
2022-09-09T01:25:24.782Z,73.65
2022-09-09T01:27:59.228Z,75.09
2022-09-09T01:30:24.178Z,74.98
2022-09-09T01:32:51.895Z,74.79
2022-09-09T01:35:32.776Z,75.08
2022-09-09T01:37:59.077Z,74.30
2022-09-09T01:40:23.592Z,74.26
2022-09-09T01:42:47.886Z,74.59
2022-09-09T01:45:13.518Z,74.68
2022-09-09T01:47:38.355Z,74.37
2022-09-09T01:50:18.871Z,74.79
2022-09-09T01:52:44.370Z,74.84
2022-09-09T01:55:11.791Z,75.25
2022-09-09T01:57:46.839Z,75.82
2022-09-09T02:00:14.891Z,76.19
2022-09-09T02:02:44.369Z,75.67
2022-09-09T02:05:24.624Z,75.16
2022-09-09T02:07:50.695Z,75.51
2022-09-09T02:10:45.688Z,75.20
2022-09-09T02:13:20.156Z,75.92
2022-09-09T02:15:51.994Z,75.66
2022-09-09T02:18:20.667Z,76.27
2022-09-09T02:20:47.104Z,76.39
2022-09-09T02:23:13.467Z,76.48
2022-09-09T02:25:39.350Z,76.31
2022-09-09T02:28:15.816Z,76.71
2022-09-09T02:30:42.117Z,77.11
2022-09-09T02:33:11.923Z,76.69
2022-09-09T02:35:44.332Z,76.30
2022-09-09T02:38:12.914Z,76.46
2022-09-09T02:40:39.718Z,77.28
2022-09-09T02:43:04.174Z,77.15
2022-09-09T02:45:38.475Z,77.05
2022-09-09T02:48:11.871Z,76.69
2022-09-09T02:50:47.905Z,77.54
2022-09-09T02:53:18.940Z,77.00
2022-09-09T02:55:49.800Z,77.45
2022-09-09T02:58:19.976Z,77.12
2022-09-09T03:00:59.545Z,77.76
2022-09-09T03:03:26.353Z,77.36
2022-09-09T03:05:50.443Z,77.42
2022-09-09T03:08:15.132Z,77.72
2022-09-09T03:10:40.353Z,77.68
2022-09-09T03:13:06.456Z,77.10
2022-09-09T03:15:35.179Z,77.03
2022-09-09T03:17:59.246Z,78.00
2022-09-09T03:20:24.685Z,77.59
2022-09-09T03:22:49.426Z,78.15
2022-09-09T03:25:13.311Z,77.77
2022-09-09T03:27:37.494Z,78.79
2022-09-09T03:30:04.862Z,79.26
2022-09-09T03:32:29.615Z,79.63
2022-09-09T03:34:55.316Z,79.09
2022-09-09T03:37:20.992Z,79.89
2022-09-09T03:39:47.061Z,79.39
2022-09-09T03:42:19.812Z,79.18
2022-09-09T03:44:51.190Z,79.47
2022-09-09T03:47:18.479Z,78.60
2022-09-09T03:49:42.817Z,79.36
2022-09-09T03:52:06.987Z,78.57
2022-09-09T03:54:32.347Z,78.04
2022-09-09T03:56:56.303Z,78.07
2022-09-09T03:59:22.421Z,78.56
2022-09-09T04:01:48.227Z,79.23
2022-09-09T04:04:13.195Z,78.89
2022-09-09T04:06:37.615Z,79.37
2022-09-09T04:09:04.380Z,78.56
2022-09-09T04:11:31.084Z,78.56
2022-09-09T04:13:57.125Z,77.99
2022-09-09T04:16:21.417Z,78.52
2022-09-09T04:18:45.898Z,78.14
2022-09-09T04:21:13.202Z,77.86
2022-09-09T04:23:38.004Z,78.34
2022-09-09T04:26:05.020Z,78.53
2022-09-09T04:28:34.477Z,78.06
2022-09-09T04:30:59.032Z,77.99
2022-09-09T04:33:23.632Z,77.85
2022-09-09T04:35:50.089Z,77.17
2022-09-09T04:38:16.413Z,76.81
2022-09-09T04:40:43.383Z,76.50
2022-09-09T04:43:08.921Z,76.67
2022-09-09T04:45:37.805Z,76.60
2022-09-09T04:48:01.633Z,75.82
2022-09-09T04:50:26.047Z,75.86
2022-09-09T04:52:55.872Z,75.51
2022-09-09T04:55:19.777Z,74.61
2022-09-09T04:57:44.078Z,74.21
2022-09-09T05:00:11.359Z,73.86
2022-09-09T05:02:41.242Z,73.21
2022-09-09T05:05:06.535Z,72.64
2022-09-09T05:07:32.391Z,71.92
2022-09-09T05:09:56.707Z,71.34
2022-09-09T05:12:20.834Z,70.47
2022-09-09T05:14:48.821Z,70.06
2022-09-09T05:17:14.339Z,70.35
2022-09-09T05:19:39.824Z,70.49
2022-09-09T05:22:03.756Z,70.18
2022-09-09T05:24:37.835Z,69.41
2022-09-09T05:27:03.374Z,68.96
2022-09-09T05:29:28.452Z,67.62
2022-09-09T05:31:53.948Z,67.49
2022-09-09T05:34:19.251Z,67.22
2022-09-09T05:36:44.880Z,67.01
2022-09-09T05:39:09.452Z,66.54
2022-09-09T05:41:34.038Z,65.97
2022-09-09T05:44:02.187Z,67.05
2022-09-09T05:46:27.152Z,66.80
2022-09-09T05:48:54.590Z,66.86
2022-09-09T05:51:26.070Z,65.79
2022-09-09T05:53:53.544Z,66.03
2022-09-09T05:56:19.698Z,66.41
2022-09-09T05:58:45.310Z,66.06
2022-09-09T06:01:11.766Z,66.41
2022-09-09T06:03:36.868Z,66.96
2022-09-09T06:06:02.091Z,66.97
2022-09-09T06:08:26.350Z,66.28
2022-09-09T06:10:52.317Z,65.80
2022-09-09T06:13:16.459Z,66.12
2022-09-09T06:15:41.591Z,65.68
2022-09-09T06:18:05.983Z,66.21
2022-09-09T06:20:31.924Z,65.24
2022-09-09T06:22:56.312Z,65.39
2022-09-09T06:25:21.326Z,64.86
2022-09-09T06:27:51.402Z,64.04
2022-09-09T06:30:15.505Z,63.34
2022-09-09T06:32:40.391Z,63.10
2022-09-09T06:35:05.476Z,62.05
2022-09-09T06:37:29.782Z,60.77
2022-09-09T06:39:56.043Z,60.49
2022-09-09T06:42:20.396Z,60.43
2022-09-09T06:44:49.218Z,60.95
2022-09-09T06:47:22.505Z,59.91
2022-09-09T06:49:48.441Z,60.11
2022-09-09T06:52:14.120Z,58.95
2022-09-09T06:54:38.771Z,58.26
2022-09-09T06:57:20.752Z,56.46
2022-09-09T06:59:50.754Z,52.83
2022-09-09T07:02:15.869Z,53.09
2022-09-09T07:04:40.149Z,49.69
2022-09-09T07:07:06.609Z,51.50
2022-09-09T07:09:32.554Z,51.76
2022-09-09T07:11:59.958Z,50.91
2022-09-09T07:14:28.250Z,51.41
2022-09-09T07:16:59.841Z,52.26
2022-09-09T07:19:27.422Z,52.05
2022-09-09T07:21:53.261Z,52.57
2022-09-09T07:24:20.237Z,53.17
2022-09-09T07:26:45.090Z,51.98
2022-09-09T07:29:10.543Z,53.34
2022-09-09T07:31:37.638Z,54.35
2022-09-09T07:34:08.084Z,50.23
2022-09-09T07:36:34.851Z,47.18
2022-09-09T07:39:02.918Z,51.24
2022-09-09T07:41:31.468Z,52.37
2022-09-09T07:43:57.592Z,47.08
2022-09-09T07:46:24.661Z,48.42
2022-09-09T07:48:52.441Z,46.54
2022-09-09T07:51:23.417Z,42.68
2022-09-09T07:53:49.192Z,44.09
2022-09-09T07:56:15.658Z,43.38
2022-09-09T07:58:41.772Z,43.53
2022-09-09T08:01:11.547Z,43.67
2022-09-09T08:03:36.009Z,44.15
2022-09-09T08:06:03.795Z,44.63
2022-09-09T08:08:30.203Z,44.52
2022-09-09T08:10:54.669Z,44.71
2022-09-09T08:13:19.488Z,44.67
2022-09-09T08:15:45.701Z,43.39
2022-09-09T08:18:10.955Z,44.72
2022-09-09T08:20:37.849Z,44.60
2022-09-09T08:23:02.109Z,45.12
2022-09-09T08:25:28.870Z,40.65
2022-09-09T08:27:55.529Z,40.75
2022-09-09T08:30:19.809Z,41.57
2022-09-09T08:32:45.996Z,41.88
2022-09-09T08:35:11.563Z,42.42
2022-09-09T08:37:35.970Z,42.43
2022-09-09T08:40:00.006Z,43.02
2022-09-09T08:42:40.295Z,43.62
2022-09-09T08:45:29.785Z,44.53
2022-09-09T08:48:08.852Z,44.42
2022-09-09T08:50:36.528Z,44.45
2022-09-09T08:53:18.530Z,45.40
2022-09-09T08:55:47.421Z,45.29
2022-09-09T08:58:18.053Z,44.68
2022-09-09T09:01:01.362Z,45.24
2022-09-09T09:03:37.319Z,45.74
2022-09-09T09:06:11.729Z,45.69
2022-09-09T09:08:46.317Z,45.67
2022-09-09T09:11:10.395Z,45.70
2022-09-09T09:13:44.439Z,46.19
2022-09-09T09:16:23.212Z,48.32
2022-09-09T09:18:48.343Z,49.55
2022-09-09T09:21:19.822Z,48.75
2022-09-09T09:23:53.794Z,47.64
2022-09-09T09:26:18.025Z,47.23
2022-09-09T09:28:43.621Z,47.95
2022-09-09T09:31:14.950Z,46.61
2022-09-09T09:33:50.543Z,49.52
2022-09-09T09:36:17.455Z,48.97
2022-09-09T09:41:43.863Z,48.06
2022-09-09T09:44:27.443Z,47.67
2022-09-09T09:46:52.229Z,47.18
2022-09-09T09:49:17.015Z,45.50
2022-09-09T09:51:42.118Z,45.38
2022-09-09T09:54:16.048Z,46.31
2022-09-09T09:56:44.920Z,46.77
2022-09-09T09:59:38.635Z,47.84
2022-09-09T10:02:19.641Z,46.20
2022-09-09T10:04:48.756Z,46.91
2022-09-09T10:07:14.904Z,46.91
2022-09-09T10:09:39.104Z,44.93
2022-09-09T10:12:12.177Z,44.46
2022-09-09T10:14:47.383Z,47.67
2022-09-09T10:17:22.156Z,48.00
2022-09-09T10:20:00.629Z,47.22
2022-09-09T10:22:28.984Z,47.05
2022-09-09T10:25:17.523Z,47.03
2022-09-09T10:27:57.801Z,47.17
2022-09-09T10:30:31.426Z,48.09
2022-09-09T10:33:06.735Z,48.43
2022-09-09T10:35:35.355Z,47.69
2022-09-09T10:38:18.799Z,47.81
2022-09-09T10:41:15.235Z,47.70
2022-09-09T10:44:09.261Z,47.06
2022-09-09T10:46:47.364Z,46.65
2022-09-09T10:49:23.210Z,46.62
2022-09-09T10:51:57.100Z,48.06
2022-09-09T10:54:40.492Z,47.49
2022-09-09T10:57:14.263Z,46.85
2022-09-09T10:59:45.046Z,48.04
2022-09-09T11:02:20.445Z,48.00
2022-09-09T11:04:50.900Z,47.90
2022-09-09T11:07:26.663Z,49.57
2022-09-09T11:09:58.217Z,48.19
2022-09-09T11:12:22.370Z,46.52
2022-09-09T11:14:51.949Z,46.80
2022-09-09T11:17:21.028Z,48.16
2022-09-09T11:19:46.286Z,47.99
2022-09-09T11:22:20.868Z,48.37
2022-09-09T11:24:49.884Z,49.35
2022-09-09T11:27:21.220Z,49.12
2022-09-09T11:30:44.607Z,44.79
2022-09-09T11:33:37.030Z,49.97
2022-09-09T11:36:19.711Z,49.27
2022-09-09T11:38:47.919Z,48.36
2022-09-09T11:41:12.161Z,48.03
2022-09-09T11:43:42.361Z,45.18
2022-09-09T11:46:08.450Z,47.29
2022-09-09T11:48:37.779Z,44.22
2022-09-09T11:51:06.145Z,44.11
2022-09-09T11:53:30.148Z,45.98
2022-09-09T11:56:06.984Z,46.02
2022-09-09T11:58:36.563Z,48.41
2022-09-09T12:01:00.753Z,49.63
2022-09-09T12:03:41.229Z,51.13
2022-09-09T12:06:18.401Z,49.73
2022-09-09T12:08:46.509Z,48.05
2022-09-09T12:11:10.791Z,49.34
2022-09-09T12:13:35.049Z,51.09
2022-09-09T12:16:00.491Z,50.94
2022-09-09T12:18:27.463Z,51.74
2022-09-09T12:21:03.770Z,51.65
2022-09-09T12:23:41.135Z,51.00
2022-09-09T12:26:24.331Z,49.07
2022-09-09T12:28:58.269Z,50.65
2022-09-09T12:31:27.711Z,51.87
2022-09-09T12:33:53.875Z,52.73
2022-09-09T12:36:24.141Z,53.12
2022-09-09T12:38:48.815Z,51.24
2022-09-09T12:41:22.736Z,52.10
2022-09-09T12:43:46.770Z,50.68
2022-09-09T12:46:22.953Z,51.17
2022-09-09T12:48:47.539Z,50.74
2022-09-09T12:51:23.596Z,50.44
2022-09-09T12:53:48.401Z,49.33
2022-09-09T12:56:21.757Z,50.11
2022-09-09T12:58:49.119Z,51.00
2022-09-09T13:01:23.351Z,46.80
2022-09-09T13:03:48.362Z,50.85
2022-09-09T13:06:22.187Z,51.35
2022-09-09T13:08:49.088Z,49.51
2022-09-09T13:11:19.337Z,49.58
2022-09-09T13:13:45.361Z,51.57
2022-09-09T13:16:23.160Z,50.37
2022-09-09T13:18:47.562Z,51.65
2022-09-09T13:21:11.644Z,49.83
2022-09-09T13:23:37.523Z,53.34
2022-09-09T13:26:05.333Z,51.86
2022-09-09T13:28:34.351Z,51.62
2022-09-09T13:31:03.231Z,52.42
2022-09-09T13:33:33.251Z,51.76
2022-09-09T13:35:59.979Z,50.45
2022-09-09T13:38:27.793Z,51.16
2022-09-09T13:40:58.675Z,53.69
2022-09-09T13:43:25.478Z,52.56
2022-09-09T13:45:56.325Z,53.18
2022-09-09T13:48:21.288Z,52.41
2022-09-09T13:50:56.473Z,53.36
2022-09-09T13:53:20.340Z,51.79
2022-09-09T13:55:44.187Z,50.37
2022-09-09T13:58:08.137Z,51.09
2022-09-09T14:00:35.345Z,53.21
2022-09-09T14:03:03.197Z,54.59
2022-09-09T14:05:28.627Z,54.41
2022-09-09T14:07:53.317Z,55.47
2022-09-09T14:10:18.225Z,56.20
2022-09-09T14:12:42.191Z,52.96
2022-09-09T14:15:06.886Z,52.15
2022-09-09T14:17:32.367Z,53.01
2022-09-09T14:19:57.150Z,50.81
2022-09-09T14:22:21.306Z,51.97
2022-09-09T14:24:48.576Z,52.78
2022-09-09T14:27:12.539Z,53.19
2022-09-09T14:29:36.380Z,54.60
2022-09-09T14:32:02.069Z,55.88
2022-09-09T14:34:27.475Z,54.62
2022-09-09T14:36:52.486Z,53.83
2022-09-09T14:39:16.488Z,55.86
2022-09-09T14:41:40.681Z,53.90
2022-09-09T14:44:04.941Z,52.85
2022-09-09T14:46:28.892Z,53.45
2022-09-09T14:51:24.991Z,54.39
2022-09-09T14:53:49.146Z,57.36
2022-09-09T14:56:15.926Z,55.98
2022-09-09T14:58:40.125Z,54.31
2022-09-09T15:01:06.084Z,53.86
2022-09-09T15:03:30.374Z,54.24
2022-09-09T15:05:54.239Z,54.85
2022-09-09T15:08:19.543Z,53.43
2022-09-09T15:10:45.966Z,55.24
2022-09-09T15:13:09.912Z,57.13
2022-09-09T15:15:35.884Z,56.12
2022-09-09T15:17:59.936Z,55.48
2022-09-09T15:20:23.792Z,56.25
2022-09-09T15:22:47.866Z,56.53
2022-09-09T15:25:13.627Z,55.81
2022-09-09T15:27:37.637Z,55.52
2022-09-09T15:30:02.026Z,55.96
2022-09-09T15:32:27.250Z,59.11
2022-09-09T15:34:52.431Z,59.48
2022-09-09T15:37:16.356Z,60.03
2022-09-09T15:39:40.681Z,63.01
2022-09-09T15:42:08.165Z,61.72
2022-09-09T15:44:32.170Z,59.89
2022-09-09T15:46:56.255Z,61.11
2022-09-09T15:49:23.070Z,59.30
2022-09-09T15:51:49.113Z,59.73
2022-09-09T15:54:14.904Z,58.90
2022-09-09T15:56:38.862Z,59.60
2022-09-09T15:59:05.238Z,58.83
2022-09-09T16:01:29.580Z,58.54
2022-09-09T16:03:53.461Z,60.39
2022-09-09T16:06:17.780Z,59.49
2022-09-09T16:08:43.980Z,59.31
2022-09-09T16:11:12.198Z,59.18
2022-09-09T16:13:36.997Z,59.40
2022-09-09T16:16:03.104Z,59.13
2022-09-09T16:18:27.438Z,59.24
2022-09-09T16:20:56.320Z,59.37
2022-09-09T16:23:21.332Z,60.19
2022-09-09T16:25:45.491Z,60.34
2022-09-09T16:28:09.580Z,61.37
2022-09-09T16:30:34.287Z,61.25
2022-09-09T16:32:59.556Z,61.26
2022-09-09T16:35:24.534Z,61.46
2022-09-09T16:37:48.621Z,61.08
2022-09-09T16:40:12.854Z,61.40
2022-09-09T16:42:39.602Z,61.36
2022-09-09T16:45:07.904Z,61.47
2022-09-09T16:47:32.320Z,61.91
2022-09-09T16:49:59.044Z,61.73
2022-09-09T16:52:23.132Z,61.23
2022-09-09T16:54:47.197Z,61.51
2022-09-09T16:57:11.325Z,61.76
2022-09-09T16:59:35.250Z,61.81
2022-09-09T17:01:59.345Z,61.86
2022-09-09T17:04:25.796Z,61.85
2022-09-09T17:06:52.677Z,61.89
2022-09-09T17:09:16.611Z,62.38
2022-09-09T17:11:41.280Z,62.75
2022-09-09T17:14:06.379Z,63.57
2022-09-09T17:16:32.414Z,63.05
2022-09-09T17:18:57.846Z,62.97
2022-09-09T17:21:24.527Z,62.22
2022-09-09T17:23:50.695Z,63.35
2022-09-09T17:26:16.548Z,63.74
2022-09-09T17:28:42.055Z,64.06
2022-09-09T17:31:08.363Z,63.48
2022-09-09T17:33:33.089Z,63.74
2022-09-09T17:35:57.245Z,64.53
2022-09-09T17:38:24.406Z,64.34
2022-09-09T17:40:51.939Z,63.57
2022-09-09T17:43:16.062Z,64.08
2022-09-09T17:45:40.957Z,64.16
2022-09-09T17:48:08.346Z,63.97
2022-09-09T17:50:34.614Z,63.96
2022-09-09T17:52:58.911Z,64.35
2022-09-09T17:55:23.085Z,65.56
2022-09-09T17:57:48.763Z,65.44
2022-09-09T18:00:13.942Z,65.03
2022-09-09T18:02:39.132Z,64.34
2022-09-09T18:05:03.340Z,65.11
2022-09-09T18:07:27.261Z,66.10
2022-09-09T18:09:51.391Z,66.63
2022-09-09T18:12:15.349Z,66.75
2022-09-09T18:14:41.903Z,66.26
2022-09-09T18:17:07.243Z,66.13
2022-09-09T18:31:18.233Z,65.47
2022-09-09T18:33:44.240Z,64.78
2022-09-09T18:36:10.427Z,65.95
2022-09-09T18:38:35.683Z,64.57
2022-09-09T18:41:00.138Z,66.07
2022-09-09T18:43:24.151Z,66.06
2022-09-09T18:45:48.005Z,66.32
2022-09-09T18:48:13.437Z,66.10
2022-09-09T18:50:37.332Z,66.08
2022-09-09T18:53:01.226Z,66.35
2022-09-09T18:55:25.274Z,67.10
2022-09-09T18:57:50.075Z,66.63
2022-09-09T19:00:14.797Z,65.82
2022-09-09T19:02:38.991Z,65.92
2022-09-09T19:05:04.567Z,65.89
2022-09-09T19:07:28.507Z,65.77
2022-09-09T19:09:52.625Z,66.66
2022-09-09T19:12:16.947Z,65.73
2022-09-09T19:14:40.882Z,66.20
2022-09-09T19:17:05.312Z,65.60
2022-09-09T19:19:31.257Z,65.60
2022-09-09T19:21:57.681Z,65.76
2022-09-09T19:24:23.268Z,65.87
2022-09-09T19:26:48.679Z,65.99
2022-09-09T19:29:15.764Z,65.45
2022-09-09T19:31:41.568Z,66.35
2022-09-09T19:34:12.922Z,66.69
2022-09-09T19:36:37.363Z,65.97
2022-09-09T19:39:03.353Z,65.94
2022-09-09T19:41:29.117Z,66.34
2022-09-09T19:43:54.994Z,65.52
2022-09-09T19:46:19.507Z,66.88
2022-09-09T19:48:44.359Z,67.14
2022-09-09T19:51:11.600Z,67.45
2022-09-09T19:53:38.769Z,67.52
2022-09-09T19:56:04.552Z,66.26
2022-09-09T19:58:28.343Z,67.14
2022-09-09T20:00:53.531Z,67.32
2022-09-09T20:03:19.577Z,67.23
2022-09-09T20:05:43.832Z,67.14
2022-09-09T20:08:07.821Z,66.49
2022-09-09T20:10:32.057Z,66.32
2022-09-09T20:12:57.267Z,66.02
2022-09-09T20:15:21.336Z,66.88
2022-09-09T20:17:45.739Z,66.35
2022-09-09T20:20:10.023Z,66.53
2022-09-09T20:22:34.147Z,65.76
2022-09-09T20:24:58.165Z,66.58
2022-09-09T20:27:22.030Z,65.82
2022-09-09T20:29:47.548Z,66.62
2022-09-09T20:32:12.202Z,66.88
2022-09-09T20:34:36.021Z,66.31
2022-09-09T20:37:02.664Z,66.48
2022-09-09T20:39:27.870Z,66.61
2022-09-09T20:41:52.375Z,67.06
2022-09-09T20:44:17.927Z,67.20
2022-09-09T20:46:48.112Z,66.66
2022-09-09T20:49:13.017Z,66.55
2022-09-09T20:51:38.106Z,66.88
2022-09-09T20:54:04.936Z,66.99
2022-09-09T20:56:32.478Z,66.96
2022-09-09T20:58:56.906Z,66.93
2022-09-09T21:01:22.315Z,67.24
2022-09-09T21:03:47.710Z,66.58
2022-09-09T21:06:12.665Z,67.02
2022-09-09T21:08:36.837Z,67.08
2022-09-09T21:11:02.566Z,66.83
2022-09-09T21:13:28.154Z,65.75
2022-09-09T21:15:53.140Z,65.38
2022-09-09T21:18:17.437Z,65.95
2022-09-09T21:20:43.781Z,65.50
2022-09-09T21:23:08.659Z,66.19
2022-09-09T21:25:32.502Z,66.09
2022-09-09T21:27:56.511Z,66.40
2022-09-09T21:30:24.829Z,66.11
2022-09-09T21:32:52.568Z,65.86
2022-09-09T21:35:16.845Z,65.90
2022-09-09T21:37:42.641Z,66.67
2022-09-09T21:40:07.869Z,65.82
2022-09-09T21:42:31.924Z,66.68
2022-09-09T21:44:55.906Z,66.36
2022-09-09T21:47:19.847Z,66.83
2022-09-09T21:49:44.089Z,66.76
2022-09-09T21:52:07.964Z,65.97
2022-09-09T21:54:34.260Z,66.21
2022-09-09T21:56:58.485Z,66.64
2022-09-09T21:59:22.651Z,66.62
2022-09-09T22:01:47.424Z,66.70
2022-09-09T22:04:11.526Z,67.63
2022-09-09T22:06:35.488Z,67.38
2022-09-09T22:09:01.801Z,68.58
2022-09-09T22:11:28.160Z,68.07
2022-09-09T22:13:53.269Z,68.54
2022-09-09T22:16:21.126Z,67.81
2022-09-09T22:18:46.039Z,68.65
2022-09-09T22:21:11.929Z,68.37
2022-09-09T22:23:36.537Z,68.62
2022-09-09T22:26:00.603Z,68.72
2022-09-09T22:28:25.885Z,68.50
2022-09-09T22:30:50.082Z,68.91
2022-09-09T22:33:14.060Z,68.72
2022-09-09T22:35:42.429Z,69.33
2022-09-09T22:38:06.889Z,70.38
2022-09-09T22:40:30.984Z,69.55
2022-09-09T22:42:54.794Z,68.99
2022-09-09T22:45:20.956Z,68.83
2022-09-09T22:47:44.927Z,69.10
2022-09-09T22:50:09.933Z,68.79
2022-09-09T22:52:33.883Z,68.79
2022-09-09T22:54:59.147Z,69.22
2022-09-09T22:57:23.089Z,69.28
2022-09-09T22:59:47.037Z,69.40
2022-09-09T23:02:13.301Z,69.61
2022-09-09T23:04:39.266Z,69.95
2022-09-09T23:07:03.534Z,69.83
2022-09-09T23:09:27.735Z,69.82
2022-09-09T23:11:51.751Z,70.35
2022-09-09T23:14:15.621Z,70.93
2022-09-09T23:16:42.167Z,70.82
2022-09-09T23:19:10.927Z,70.51
2022-09-09T23:21:34.802Z,70.92
2022-09-09T23:24:01.473Z,71.13
2022-09-09T23:26:26.782Z,70.61
2022-09-09T23:28:51.883Z,71.37
2022-09-09T23:31:18.874Z,71.42
2022-09-09T23:33:43.916Z,71.29
2022-09-09T23:36:12.456Z,70.88
2022-09-09T23:38:39.602Z,71.11
2022-09-09T23:41:04.358Z,71.23
2022-09-09T23:43:28.995Z,72.09
2022-09-09T23:45:52.906Z,72.12
2022-09-09T23:48:16.775Z,71.71
2022-09-09T23:50:41.701Z,71.92
2022-09-09T23:53:08.478Z,72.33
2022-09-09T23:55:34.294Z,72.23
2022-09-09T23:57:58.359Z,72.33
